sensor_id;sensor_type;location;lat;lon;timestamp;P1;durP1;ratioP1;P2;durP2;ratioP2
27303;SDS011;14791;52.392;13.092;2022-08-21T00:00:11;2.40;;;2.30;;
27303;SDS011;14791;52.392;13.092;2022-08-21T00:02:46;2.12;;;2.12;;
27303;SDS011;14791;52.392;13.092;2022-08-21T00:05:17;2.55;;;2.37;;
27303;SDS011;14791;52.392;13.092;2022-08-21T00:07:46;2.58;;;2.47;;
27303;SDS011;14791;52.392;13.092;2022-08-21T00:10:15;2.40;;;2.30;;
27303;SDS011;14791;52.392;13.092;2022-08-21T00:12:45;2.17;;;2.17;;
27303;SDS011;14791;52.392;13.092;2022-08-21T00:15:17;2.55;;;2.35;;
27303;SDS011;14791;52.392;13.092;2022-08-21T00:17:47;1.87;;;1.87;;
27303;SDS011;14791;52.392;13.092;2022-08-21T00:20:16;2.02;;;2.02;;
27303;SDS011;14791;52.392;13.092;2022-08-21T00:22:45;2.90;;;2.20;;
27303;SDS011;14791;52.392;13.092;2022-08-21T00:25:16;2.20;;;2.17;;
27303;SDS011;14791;52.392;13.092;2022-08-21T00:27:46;2.22;;;2.22;;
27303;SDS011;14791;52.392;13.092;2022-08-21T00:30:16;2.15;;;2.08;;
27303;SDS011;14791;52.392;13.092;2022-08-21T00:32:46;2.30;;;2.20;;
27303;SDS011;14791;52.392;13.092;2022-08-21T00:35:16;2.00;;;2.00;;
27303;SDS011;14791;52.392;13.092;2022-08-21T00:37:47;2.12;;;2.12;;
27303;SDS011;14791;52.392;13.092;2022-08-21T00:40:17;2.50;;;2.40;;
27303;SDS011;14791;52.392;13.092;2022-08-21T00:42:48;1.70;;;1.70;;
27303;SDS011;14791;52.392;13.092;2022-08-21T00:45:18;2.08;;;1.98;;
27303;SDS011;14791;52.392;13.092;2022-08-21T00:47:46;2.00;;;1.90;;
27303;SDS011;14791;52.392;13.092;2022-08-21T00:50:17;2.27;;;2.17;;
27303;SDS011;14791;52.392;13.092;2022-08-21T00:52:47;2.55;;;2.45;;
27303;SDS011;14791;52.392;13.092;2022-08-21T00:55:18;2.00;;;1.90;;
27303;SDS011;14791;52.392;13.092;2022-08-21T00:57:51;1.70;;;1.70;;
27303;SDS011;14791;52.392;13.092;2022-08-21T01:00:27;2.30;;;2.20;;
27303;SDS011;14791;52.392;13.092;2022-08-21T01:02:58;2.00;;;1.60;;
27303;SDS011;14791;52.392;13.092;2022-08-21T01:05:28;1.95;;;1.85;;
27303;SDS011;14791;52.392;13.092;2022-08-21T01:07:57;1.90;;;1.90;;
27303;SDS011;14791;52.392;13.092;2022-08-21T01:10:26;2.10;;;2.10;;
27303;SDS011;14791;52.392;13.092;2022-08-21T01:12:55;2.15;;;2.15;;
27303;SDS011;14791;52.392;13.092;2022-08-21T01:15:27;2.25;;;2.10;;
27303;SDS011;14791;52.392;13.092;2022-08-21T01:17:57;1.98;;;1.87;;
27303;SDS011;14791;52.392;13.092;2022-08-21T01:20:27;1.92;;;1.92;;
27303;SDS011;14791;52.392;13.092;2022-08-21T01:22:56;1.95;;;1.95;;
27303;SDS011;14791;52.392;13.092;2022-08-21T01:25:25;1.70;;;1.70;;
27303;SDS011;14791;52.392;13.092;2022-08-21T01:27:54;1.72;;;1.72;;
27303;SDS011;14791;52.392;13.092;2022-08-21T01:30:24;2.10;;;2.00;;
27303;SDS011;14791;52.392;13.092;2022-08-21T01:32:55;2.27;;;2.02;;
27303;SDS011;14791;52.392;13.092;2022-08-21T01:35:24;1.98;;;1.98;;
27303;SDS011;14791;52.392;13.092;2022-08-21T01:37:55;2.30;;;2.10;;
27303;SDS011;14791;52.392;13.092;2022-08-21T01:40:24;2.10;;;2.00;;
27303;SDS011;14791;52.392;13.092;2022-08-21T01:42:53;2.05;;;1.95;;
27303;SDS011;14791;52.392;13.092;2022-08-21T01:45:21;1.87;;;1.87;;
27303;SDS011;14791;52.392;13.092;2022-08-21T01:47:50;1.62;;;1.62;;
27303;SDS011;14791;52.392;13.092;2022-08-21T01:50:20;1.75;;;1.72;;
27303;SDS011;14791;52.392;13.092;2022-08-21T01:52:49;1.67;;;1.67;;
27303;SDS011;14791;52.392;13.092;2022-08-21T01:55:18;1.77;;;1.77;;
27303;SDS011;14791;52.392;13.092;2022-08-21T01:57:48;1.85;;;1.75;;
27303;SDS011;14791;52.392;13.092;2022-08-21T02:00:19;1.90;;;1.90;;
27303;SDS011;14791;52.392;13.092;2022-08-21T02:02:52;1.60;;;1.60;;
27303;SDS011;14791;52.392;13.092;2022-08-21T02:05:22;1.50;;;1.50;;
27303;SDS011;14791;52.392;13.092;2022-08-21T02:07:52;1.70;;;1.57;;
27303;SDS011;14791;52.392;13.092;2022-08-21T02:10:24;1.80;;;1.70;;
27303;SDS011;14791;52.392;13.092;2022-08-21T02:12:54;2.95;;;1.55;;
27303;SDS011;14791;52.392;13.092;2022-08-21T02:15:24;1.70;;;1.50;;
27303;SDS011;14791;52.392;13.092;2022-08-21T02:17:55;1.27;;;1.27;;
27303;SDS011;14791;52.392;13.092;2022-08-21T02:20:35;1.92;;;1.82;;
27303;SDS011;14791;52.392;13.092;2022-08-21T02:23:01;1.60;;;1.60;;
27303;SDS011;14791;52.392;13.092;2022-08-21T02:25:31;1.85;;;1.75;;
27303;SDS011;14791;52.392;13.092;2022-08-21T02:28:02;2.35;;;1.40;;
27303;SDS011;14791;52.392;13.092;2022-08-21T02:30:34;1.20;;;1.20;;
27303;SDS011;14791;52.392;13.092;2022-08-21T02:33:05;1.65;;;1.60;;
27303;SDS011;14791;52.392;13.092;2022-08-21T02:35:36;1.42;;;1.32;;
27303;SDS011;14791;52.392;13.092;2022-08-21T02:38:10;1.27;;;1.27;;
27303;SDS011;14791;52.392;13.092;2022-08-21T02:40:41;1.62;;;1.52;;
27303;SDS011;14791;52.392;13.092;2022-08-21T02:43:12;1.50;;;1.50;;
27303;SDS011;14791;52.392;13.092;2022-08-21T02:45:42;3.77;;;1.42;;
27303;SDS011;14791;52.392;13.092;2022-08-21T02:48:14;1.60;;;1.50;;
27303;SDS011;14791;52.392;13.092;2022-08-21T02:50:46;1.85;;;1.75;;
27303;SDS011;14791;52.392;13.092;2022-08-21T02:53:17;1.82;;;1.72;;
27303;SDS011;14791;52.392;13.092;2022-08-21T02:55:47;1.27;;;1.27;;
27303;SDS011;14791;52.392;13.092;2022-08-21T02:58:19;1.60;;;1.60;;
27303;SDS011;14791;52.392;13.092;2022-08-21T03:00:50;2.70;;;1.47;;
27303;SDS011;14791;52.392;13.092;2022-08-21T03:03:20;1.55;;;1.45;;
27303;SDS011;14791;52.392;13.092;2022-08-21T03:05:49;1.15;;;1.15;;
27303;SDS011;14791;52.392;13.092;2022-08-21T03:08:19;1.22;;;1.15;;
27303;SDS011;14791;52.392;13.092;2022-08-21T03:10:49;1.72;;;1.47;;
27303;SDS011;14791;52.392;13.092;2022-08-21T03:13:20;1.30;;;1.20;;
27303;SDS011;14791;52.392;13.092;2022-08-21T03:15:49;1.50;;;1.50;;
27303;SDS011;14791;52.392;13.092;2022-08-21T03:18:18;1.27;;;1.27;;
27303;SDS011;14791;52.392;13.092;2022-08-21T03:20:47;1.27;;;1.17;;
27303;SDS011;14791;52.392;13.092;2022-08-21T03:23:17;1.20;;;1.10;;
27303;SDS011;14791;52.392;13.092;2022-08-21T03:25:46;2.22;;;1.65;;
27303;SDS011;14791;52.392;13.092;2022-08-21T03:28:22;1.00;;;1.00;;
27303;SDS011;14791;52.392;13.092;2022-08-21T03:30:49;1.85;;;1.57;;
27303;SDS011;14791;52.392;13.092;2022-08-21T03:33:19;1.40;;;1.30;;
27303;SDS011;14791;52.392;13.092;2022-08-21T03:35:52;1.40;;;1.40;;
27303;SDS011;14791;52.392;13.092;2022-08-21T03:38:24;2.45;;;1.50;;
27303;SDS011;14791;52.392;13.092;2022-08-21T03:40:54;1.20;;;1.10;;
27303;SDS011;14791;52.392;13.092;2022-08-21T03:43:23;1.30;;;1.30;;
27303;SDS011;14791;52.392;13.092;2022-08-21T03:45:52;1.82;;;1.37;;
27303;SDS011;14791;52.392;13.092;2022-08-21T03:48:21;3.10;;;1.27;;
27303;SDS011;14791;52.392;13.092;2022-08-21T03:50:51;1.17;;;1.07;;
27303;SDS011;14791;52.392;13.092;2022-08-21T03:53:21;1.40;;;1.30;;
27303;SDS011;14791;52.392;13.092;2022-08-21T03:55:50;1.12;;;1.00;;
27303;SDS011;14791;52.392;13.092;2022-08-21T03:58:21;2.17;;;1.20;;
27303;SDS011;14791;52.392;13.092;2022-08-21T04:00:52;1.25;;;1.25;;
27303;SDS011;14791;52.392;13.092;2022-08-21T04:03:23;0.93;;;0.93;;
27303;SDS011;14791;52.392;13.092;2022-08-21T04:05:53;1.60;;;1.50;;
27303;SDS011;14791;52.392;13.092;2022-08-21T04:08:22;1.42;;;1.32;;
27303;SDS011;14791;52.392;13.092;2022-08-21T04:10:52;1.35;;;1.30;;
27303;SDS011;14791;52.392;13.092;2022-08-21T04:13:23;1.00;;;1.00;;
27303;SDS011;14791;52.392;13.092;2022-08-21T04:15:54;2.27;;;1.35;;
27303;SDS011;14791;52.392;13.092;2022-08-21T04:18:25;2.83;;;1.12;;
27303;SDS011;14791;52.392;13.092;2022-08-21T04:20:54;0.98;;;0.95;;
27303;SDS011;14791;52.392;13.092;2022-08-21T04:23:25;1.20;;;1.20;;
27303;SDS011;14791;52.392;13.092;2022-08-21T04:25:55;1.35;;;1.27;;
27303;SDS011;14791;52.392;13.092;2022-08-21T04:28:25;2.17;;;1.35;;
27303;SDS011;14791;52.392;13.092;2022-08-21T04:30:55;1.67;;;1.32;;
27303;SDS011;14791;52.392;13.092;2022-08-21T04:33:25;1.17;;;1.15;;
27303;SDS011;14791;52.392;13.092;2022-08-21T04:35:54;1.42;;;1.32;;
27303;SDS011;14791;52.392;13.092;2022-08-21T04:38:23;1.60;;;1.20;;
27303;SDS011;14791;52.392;13.092;2022-08-21T04:40:53;1.37;;;1.32;;
27303;SDS011;14791;52.392;13.092;2022-08-21T04:43:22;1.10;;;1.07;;
27303;SDS011;14791;52.392;13.092;2022-08-21T04:45:51;1.32;;;1.30;;
27303;SDS011;14791;52.392;13.092;2022-08-21T04:48:22;1.20;;;1.20;;
27303;SDS011;14791;52.392;13.092;2022-08-21T04:51:02;1.07;;;0.98;;
27303;SDS011;14791;52.392;13.092;2022-08-21T04:56:13;1.20;;;1.20;;
27303;SDS011;14791;52.392;13.092;2022-08-21T04:58:42;1.55;;;1.32;;
27303;SDS011;14791;52.392;13.092;2022-08-21T05:01:13;1.82;;;1.72;;
27303;SDS011;14791;52.392;13.092;2022-08-21T05:03:44;1.87;;;1.15;;
27303;SDS011;14791;52.392;13.092;2022-08-21T05:06:14;1.00;;;0.95;;
27303;SDS011;14791;52.392;13.092;2022-08-21T05:08:45;1.00;;;1.00;;
27303;SDS011;14791;52.392;13.092;2022-08-21T05:11:16;2.20;;;1.25;;
27303;SDS011;14791;52.392;13.092;2022-08-21T05:13:47;2.67;;;1.37;;
27303;SDS011;14791;52.392;13.092;2022-08-21T05:16:16;1.60;;;1.20;;
27303;SDS011;14791;52.392;13.092;2022-08-21T05:18:45;1.17;;;1.02;;
27303;SDS011;14791;52.392;13.092;2022-08-21T05:21:14;1.50;;;1.30;;
27303;SDS011;14791;52.392;13.092;2022-08-21T05:23:43;1.15;;;1.05;;
27303;SDS011;14791;52.392;13.092;2022-08-21T05:26:12;1.37;;;1.30;;
27303;SDS011;14791;52.392;13.092;2022-08-21T05:28:41;2.55;;;1.50;;
27303;SDS011;14791;52.392;13.092;2022-08-21T05:31:10;2.22;;;1.15;;
27303;SDS011;14791;52.392;13.092;2022-08-21T05:33:39;2.70;;;1.25;;
27303;SDS011;14791;52.392;13.092;2022-08-21T05:36:08;1.20;;;1.10;;
27303;SDS011;14791;52.392;13.092;2022-08-21T05:38:36;2.37;;;1.50;;
27303;SDS011;14791;52.392;13.092;2022-08-21T05:41:05;1.87;;;0.95;;
27303;SDS011;14791;52.392;13.092;2022-08-21T05:43:34;1.57;;;1.47;;
27303;SDS011;14791;52.392;13.092;2022-08-21T05:46:04;1.20;;;1.20;;
27303;SDS011;14791;52.392;13.092;2022-08-21T05:48:34;1.25;;;1.20;;
27303;SDS011;14791;52.392;13.092;2022-08-21T05:51:08;1.45;;;1.35;;
27303;SDS011;14791;52.392;13.092;2022-08-21T05:53:39;1.65;;;1.05;;
27303;SDS011;14791;52.392;13.092;2022-08-21T05:56:09;1.70;;;1.20;;
27303;SDS011;14791;52.392;13.092;2022-08-21T05:58:39;1.50;;;1.40;;
27303;SDS011;14791;52.392;13.092;2022-08-21T06:01:09;1.52;;;1.42;;
27303;SDS011;14791;52.392;13.092;2022-08-21T06:03:39;1.32;;;1.20;;
27303;SDS011;14791;52.392;13.092;2022-08-21T06:06:08;1.40;;;1.30;;
27303;SDS011;14791;52.392;13.092;2022-08-21T06:08:38;1.20;;;1.15;;
27303;SDS011;14791;52.392;13.092;2022-08-21T06:11:06;1.20;;;1.20;;
27303;SDS011;14791;52.392;13.092;2022-08-21T06:13:37;0.90;;;0.90;;
27303;SDS011;14791;52.392;13.092;2022-08-21T06:16:08;2.47;;;1.30;;
27303;SDS011;14791;52.392;13.092;2022-08-21T06:18:38;1.75;;;1.37;;
27303;SDS011;14791;52.392;13.092;2022-08-21T06:21:07;1.25;;;1.15;;
27303;SDS011;14791;52.392;13.092;2022-08-21T06:23:38;2.42;;;1.22;;
27303;SDS011;14791;52.392;13.092;2022-08-21T06:26:07;1.27;;;1.17;;
27303;SDS011;14791;52.392;13.092;2022-08-21T06:28:37;1.12;;;1.10;;
27303;SDS011;14791;52.392;13.092;2022-08-21T06:31:10;1.52;;;1.42;;
27303;SDS011;14791;52.392;13.092;2022-08-21T06:33:43;1.50;;;1.40;;
27303;SDS011;14791;52.392;13.092;2022-08-21T06:36:12;1.32;;;1.20;;
27303;SDS011;14791;52.392;13.092;2022-08-21T06:38:41;2.27;;;1.40;;
27303;SDS011;14791;52.392;13.092;2022-08-21T06:41:11;1.77;;;1.32;;
27303;SDS011;14791;52.392;13.092;2022-08-21T06:43:41;1.15;;;1.15;;
27303;SDS011;14791;52.392;13.092;2022-08-21T06:46:10;1.40;;;1.30;;
27303;SDS011;14791;52.392;13.092;2022-08-21T06:48:39;1.42;;;1.32;;
27303;SDS011;14791;52.392;13.092;2022-08-21T06:51:08;1.30;;;1.30;;
27303;SDS011;14791;52.392;13.092;2022-08-21T06:53:37;2.00;;;1.47;;
27303;SDS011;14791;52.392;13.092;2022-08-21T06:56:06;1.12;;;1.10;;
27303;SDS011;14791;52.392;13.092;2022-08-21T06:58:35;1.52;;;1.00;;
27303;SDS011;14791;52.392;13.092;2022-08-21T07:01:04;1.10;;;1.00;;
27303;SDS011;14791;52.392;13.092;2022-08-21T07:03:38;1.25;;;1.07;;
27303;SDS011;14791;52.392;13.092;2022-08-21T07:06:08;0.88;;;0.88;;
27303;SDS011;14791;52.392;13.092;2022-08-21T07:08:38;1.25;;;1.15;;
27303;SDS011;14791;52.392;13.092;2022-08-21T07:11:09;1.27;;;1.10;;
27303;SDS011;14791;52.392;13.092;2022-08-21T07:13:39;1.25;;;1.25;;
27303;SDS011;14791;52.392;13.092;2022-08-21T07:16:08;0.80;;;0.80;;
27303;SDS011;14791;52.392;13.092;2022-08-21T07:18:37;0.90;;;0.90;;
27303;SDS011;14791;52.392;13.092;2022-08-21T07:21:06;1.77;;;1.02;;
27303;SDS011;14791;52.392;13.092;2022-08-21T07:23:38;0.80;;;0.80;;
27303;SDS011;14791;52.392;13.092;2022-08-21T07:26:09;1.95;;;0.85;;
27303;SDS011;14791;52.392;13.092;2022-08-21T07:28:38;2.00;;;1.05;;
27303;SDS011;14791;52.392;13.092;2022-08-21T07:31:08;1.52;;;1.02;;
27303;SDS011;14791;52.392;13.092;2022-08-21T07:33:39;1.98;;;1.05;;
27303;SDS011;14791;52.392;13.092;2022-08-21T07:36:09;1.25;;;1.15;;
27303;SDS011;14791;52.392;13.092;2022-08-21T07:38:39;1.20;;;1.07;;
27303;SDS011;14791;52.392;13.092;2022-08-21T07:41:15;1.10;;;1.10;;
27303;SDS011;14791;52.392;13.092;2022-08-21T07:43:47;0.88;;;0.85;;
27303;SDS011;14791;52.392;13.092;2022-08-21T07:46:16;0.80;;;0.80;;
27303;SDS011;14791;52.392;13.092;2022-08-21T07:48:45;0.75;;;0.75;;
27303;SDS011;14791;52.392;13.092;2022-08-21T07:51:14;0.80;;;0.80;;
27303;SDS011;14791;52.392;13.092;2022-08-21T07:53:54;0.90;;;0.90;;
27303;SDS011;14791;52.392;13.092;2022-08-21T07:56:19;1.72;;;0.90;;
27303;SDS011;14791;52.392;13.092;2022-08-21T07:58:49;1.10;;;1.00;;
27303;SDS011;14791;52.392;13.092;2022-08-21T08:01:18;1.80;;;1.00;;
27303;SDS011;14791;52.392;13.092;2022-08-21T08:03:47;0.95;;;0.82;;
27303;SDS011;14791;52.392;13.092;2022-08-21T08:06:16;1.82;;;1.00;;
27303;SDS011;14791;52.392;13.092;2022-08-21T08:08:46;0.75;;;0.75;;
27303;SDS011;14791;52.392;13.092;2022-08-21T08:11:15;1.92;;;0.80;;
27303;SDS011;14791;52.392;13.092;2022-08-21T08:13:45;0.75;;;0.75;;
27303;SDS011;14791;52.392;13.092;2022-08-21T08:16:16;1.10;;;1.10;;
27303;SDS011;14791;52.392;13.092;2022-08-21T08:18:45;0.80;;;0.80;;
27303;SDS011;14791;52.392;13.092;2022-08-21T08:21:14;0.72;;;0.72;;
27303;SDS011;14791;52.392;13.092;2022-08-21T08:23:44;1.82;;;0.90;;
27303;SDS011;14791;52.392;13.092;2022-08-21T08:26:13;1.82;;;0.98;;
27303;SDS011;14791;52.392;13.092;2022-08-21T08:28:44;3.62;;;1.00;;
27303;SDS011;14791;52.392;13.092;2022-08-21T08:31:14;0.80;;;0.80;;
27303;SDS011;14791;52.392;13.092;2022-08-21T08:33:43;1.05;;;0.88;;
27303;SDS011;14791;52.392;13.092;2022-08-21T08:36:14;1.22;;;1.00;;
27303;SDS011;14791;52.392;13.092;2022-08-21T08:38:46;1.07;;;1.00;;
27303;SDS011;14791;52.392;13.092;2022-08-21T08:41:19;1.00;;;1.00;;
27303;SDS011;14791;52.392;13.092;2022-08-21T08:43:52;0.85;;;0.85;;
27303;SDS011;14791;52.392;13.092;2022-08-21T08:46:30;1.45;;;0.82;;
27303;SDS011;14791;52.392;13.092;2022-08-21T08:49:12;1.17;;;1.00;;
27303;SDS011;14791;52.392;13.092;2022-08-21T08:51:46;0.90;;;0.90;;
27303;SDS011;14791;52.392;13.092;2022-08-21T08:54:21;1.02;;;0.93;;
27303;SDS011;14791;52.392;13.092;2022-08-21T08:56:51;1.60;;;1.10;;
27303;SDS011;14791;52.392;13.092;2022-08-21T08:59:22;1.20;;;1.10;;
27303;SDS011;14791;52.392;13.092;2022-08-21T09:01:54;0.95;;;0.95;;
27303;SDS011;14791;52.392;13.092;2022-08-21T09:04:24;1.10;;;1.10;;
27303;SDS011;14791;52.392;13.092;2022-08-21T09:06:58;1.40;;;1.30;;
27303;SDS011;14791;52.392;13.092;2022-08-21T09:15:03;1.57;;;1.40;;
27303;SDS011;14791;52.392;13.092;2022-08-21T09:17:39;0.78;;;0.78;;
27303;SDS011;14791;52.392;13.092;2022-08-21T09:20:14;0.93;;;0.93;;
27303;SDS011;14791;52.392;13.092;2022-08-21T09:28:33;1.00;;;1.00;;
27303;SDS011;14791;52.392;13.092;2022-08-21T09:31:06;0.78;;;0.78;;
27303;SDS011;14791;52.392;13.092;2022-08-21T09:33:34;1.72;;;0.95;;
27303;SDS011;14791;52.392;13.092;2022-08-21T09:36:03;0.88;;;0.88;;
27303;SDS011;14791;52.392;13.092;2022-08-21T09:38:35;1.22;;;1.12;;
27303;SDS011;14791;52.392;13.092;2022-08-21T09:41:07;1.30;;;1.20;;
27303;SDS011;14791;52.392;13.092;2022-08-21T09:43:37;1.17;;;1.15;;
27303;SDS011;14791;52.392;13.092;2022-08-21T09:46:10;1.00;;;1.00;;
27303;SDS011;14791;52.392;13.092;2022-08-21T09:48:49;4.87;;;1.92;;
27303;SDS011;14791;52.392;13.092;2022-08-21T09:51:21;1.20;;;1.10;;
27303;SDS011;14791;52.392;13.092;2022-08-21T09:53:55;0.88;;;0.88;;
27303;SDS011;14791;52.392;13.092;2022-08-21T09:59:26;1.40;;;1.30;;
27303;SDS011;14791;52.392;13.092;2022-08-21T10:04:31;1.47;;;1.37;;
27303;SDS011;14791;52.392;13.092;2022-08-21T10:07:08;1.00;;;1.00;;
27303;SDS011;14791;52.392;13.092;2022-08-21T10:09:40;0.90;;;0.90;;
27303;SDS011;14791;52.392;13.092;2022-08-21T10:12:12;0.93;;;0.93;;
27303;SDS011;14791;52.392;13.092;2022-08-21T10:17:34;1.02;;;1.02;;
27303;SDS011;14791;52.392;13.092;2022-08-21T10:20:23;1.00;;;1.00;;
27303;SDS011;14791;52.392;13.092;2022-08-21T10:25:40;1.07;;;1.05;;
27303;SDS011;14791;52.392;13.092;2022-08-21T10:28:14;2.87;;;0.70;;
27303;SDS011;14791;52.392;13.092;2022-08-21T10:36:18;1.15;;;1.02;;
27303;SDS011;14791;52.392;13.092;2022-08-21T10:42:08;0.80;;;0.80;;
27303;SDS011;14791;52.392;13.092;2022-08-21T10:44:47;0.70;;;0.70;;
27303;SDS011;14791;52.392;13.092;2022-08-21T10:47:18;1.42;;;0.98;;
27303;SDS011;14791;52.392;13.092;2022-08-21T10:52:36;0.85;;;0.85;;
27303;SDS011;14791;52.392;13.092;2022-08-21T10:55:27;0.82;;;0.82;;
27303;SDS011;14791;52.392;13.092;2022-08-21T10:58:11;0.90;;;0.90;;
27303;SDS011;14791;52.392;13.092;2022-08-21T11:00:49;0.80;;;0.80;;
27303;SDS011;14791;52.392;13.092;2022-08-21T11:03:45;0.68;;;0.68;;
27303;SDS011;14791;52.392;13.092;2022-08-21T11:08:46;0.82;;;0.82;;
27303;SDS011;14791;52.392;13.092;2022-08-21T11:11:25;0.80;;;0.80;;
27303;SDS011;14791;52.392;13.092;2022-08-21T11:14:08;0.88;;;0.88;;
27303;SDS011;14791;52.392;13.092;2022-08-21T11:16:38;0.80;;;0.80;;
27303;SDS011;14791;52.392;13.092;2022-08-21T11:19:20;0.98;;;0.95;;
27303;SDS011;14791;52.392;13.092;2022-08-21T11:22:13;0.90;;;0.90;;
27303;SDS011;14791;52.392;13.092;2022-08-21T11:25:03;0.93;;;0.93;;
27303;SDS011;14791;52.392;13.092;2022-08-21T11:30:16;1.77;;;1.02;;
27303;SDS011;14791;52.392;13.092;2022-08-21T11:35:51;1.35;;;0.95;;
27303;SDS011;14791;52.392;13.092;2022-08-21T11:38:41;0.98;;;0.98;;
27303;SDS011;14791;52.392;13.092;2022-08-21T11:47:04;1.17;;;1.17;;
27303;SDS011;14791;52.392;13.092;2022-08-21T11:52:52;1.02;;;1.02;;
27303;SDS011;14791;52.392;13.092;2022-08-21T11:55:37;0.80;;;0.80;;
27303;SDS011;14791;52.392;13.092;2022-08-21T11:58:11;1.40;;;1.17;;
27303;SDS011;14791;52.392;13.092;2022-08-21T12:00:47;2.30;;;0.95;;
27303;SDS011;14791;52.392;13.092;2022-08-21T12:03:13;1.40;;;1.27;;
27303;SDS011;14791;52.392;13.092;2022-08-21T12:05:44;1.30;;;1.20;;
27303;SDS011;14791;52.392;13.092;2022-08-21T12:08:26;1.98;;;1.15;;
27303;SDS011;14791;52.392;13.092;2022-08-21T12:11:04;0.90;;;0.90;;
27303;SDS011;14791;52.392;13.092;2022-08-21T12:13:36;1.05;;;1.05;;
27303;SDS011;14791;52.392;13.092;2022-08-21T12:16:08;1.20;;;1.20;;
27303;SDS011;14791;52.392;13.092;2022-08-21T12:18:39;1.50;;;1.40;;
27303;SDS011;14791;52.392;13.092;2022-08-21T12:21:25;1.27;;;1.17;;
27303;SDS011;14791;52.392;13.092;2022-08-21T12:24:00;1.30;;;1.20;;
27303;SDS011;14791;52.392;13.092;2022-08-21T12:26:55;1.30;;;1.20;;
27303;SDS011;14791;52.392;13.092;2022-08-21T12:29:25;0.93;;;0.93;;
27303;SDS011;14791;52.392;13.092;2022-08-21T12:34:33;1.10;;;1.10;;
27303;SDS011;14791;52.392;13.092;2022-08-21T12:37:09;1.30;;;1.30;;
27303;SDS011;14791;52.392;13.092;2022-08-21T12:39:42;2.02;;;1.20;;
27303;SDS011;14791;52.392;13.092;2022-08-21T12:42:16;1.30;;;1.20;;
27303;SDS011;14791;52.392;13.092;2022-08-21T12:44:51;1.37;;;1.27;;
27303;SDS011;14791;52.392;13.092;2022-08-21T12:47:33;3.02;;;1.20;;
27303;SDS011;14791;52.392;13.092;2022-08-21T12:56:03;1.35;;;1.25;;
27303;SDS011;14791;52.392;13.092;2022-08-21T12:58:35;1.12;;;1.07;;
27303;SDS011;14791;52.392;13.092;2022-08-21T13:01:14;2.05;;;1.15;;
27303;SDS011;14791;52.392;13.092;2022-08-21T13:03:53;1.00;;;1.00;;
27303;SDS011;14791;52.392;13.092;2022-08-21T13:06:23;1.07;;;1.07;;
27303;SDS011;14791;52.392;13.092;2022-08-21T13:08:58;2.37;;;1.45;;
27303;SDS011;14791;52.392;13.092;2022-08-21T13:11:31;1.30;;;1.20;;
27303;SDS011;14791;52.392;13.092;2022-08-21T13:14:00;1.05;;;1.05;;
27303;SDS011;14791;52.392;13.092;2022-08-21T13:16:31;1.30;;;1.30;;
27303;SDS011;14791;52.392;13.092;2022-08-21T13:19:02;1.20;;;1.20;;
27303;SDS011;14791;52.392;13.092;2022-08-21T13:21:34;1.45;;;1.35;;
27303;SDS011;14791;52.392;13.092;2022-08-21T13:27:00;1.37;;;1.37;;
27303;SDS011;14791;52.392;13.092;2022-08-21T13:29:30;1.00;;;1.00;;
27303;SDS011;14791;52.392;13.092;2022-08-21T13:32:04;1.30;;;1.30;;
27303;SDS011;14791;52.392;13.092;2022-08-21T13:34:36;1.20;;;1.20;;
27303;SDS011;14791;52.392;13.092;2022-08-21T13:37:06;1.10;;;1.10;;
27303;SDS011;14791;52.392;13.092;2022-08-21T13:39:37;1.15;;;1.05;;
27303;SDS011;14791;52.392;13.092;2022-08-21T13:42:09;1.00;;;1.00;;
27303;SDS011;14791;52.392;13.092;2022-08-21T13:44:43;1.47;;;1.20;;
27303;SDS011;14791;52.392;13.092;2022-08-21T13:47:14;1.10;;;1.10;;
27303;SDS011;14791;52.392;13.092;2022-08-21T13:49:46;0.90;;;0.90;;
27303;SDS011;14791;52.392;13.092;2022-08-21T13:52:18;1.30;;;1.20;;
27303;SDS011;14791;52.392;13.092;2022-08-21T13:55:06;1.20;;;1.10;;
27303;SDS011;14791;52.392;13.092;2022-08-21T13:57:33;1.30;;;1.20;;
27303;SDS011;14791;52.392;13.092;2022-08-21T14:00:25;1.98;;;1.37;;
27303;SDS011;14791;52.392;13.092;2022-08-21T14:02:59;1.27;;;1.17;;
27303;SDS011;14791;52.392;13.092;2022-08-21T14:05:37;1.47;;;1.05;;
27303;SDS011;14791;52.392;13.092;2022-08-21T14:08:12;1.17;;;1.10;;
27303;SDS011;14791;52.392;13.092;2022-08-21T14:10:47;1.35;;;1.25;;
27303;SDS011;14791;52.392;13.092;2022-08-21T14:13:24;1.30;;;1.30;;
27303;SDS011;14791;52.392;13.092;2022-08-21T14:16:11;1.30;;;1.20;;
27303;SDS011;14791;52.392;13.092;2022-08-21T14:18:53;1.50;;;1.40;;
27303;SDS011;14791;52.392;13.092;2022-08-21T14:21:28;1.30;;;1.30;;
27303;SDS011;14791;52.392;13.092;2022-08-21T14:24:12;2.25;;;1.05;;
27303;SDS011;14791;52.392;13.092;2022-08-21T14:26:44;1.17;;;1.17;;
27303;SDS011;14791;52.392;13.092;2022-08-21T14:29:15;0.85;;;0.85;;
27303;SDS011;14791;52.392;13.092;2022-08-21T14:31:48;1.30;;;1.20;;
27303;SDS011;14791;52.392;13.092;2022-08-21T14:34:24;1.57;;;1.00;;
27303;SDS011;14791;52.392;13.092;2022-08-21T14:36:54;1.25;;;1.22;;
27303;SDS011;14791;52.392;13.092;2022-08-21T14:39:24;1.30;;;1.30;;
27303;SDS011;14791;52.392;13.092;2022-08-21T14:41:52;1.32;;;1.22;;
27303;SDS011;14791;52.392;13.092;2022-08-21T14:44:23;1.67;;;1.17;;
27303;SDS011;14791;52.392;13.092;2022-08-21T14:46:52;1.12;;;1.12;;
27303;SDS011;14791;52.392;13.092;2022-08-21T14:49:29;1.17;;;1.17;;
27303;SDS011;14791;52.392;13.092;2022-08-21T14:51:55;1.30;;;1.25;;
27303;SDS011;14791;52.392;13.092;2022-08-21T14:54:28;1.05;;;1.05;;
27303;SDS011;14791;52.392;13.092;2022-08-21T14:56:59;1.22;;;1.22;;
27303;SDS011;14791;52.392;13.092;2022-08-21T14:59:30;1.12;;;1.05;;
27303;SDS011;14791;52.392;13.092;2022-08-21T15:02:00;1.27;;;1.17;;
27303;SDS011;14791;52.392;13.092;2022-08-21T15:04:31;1.10;;;1.00;;
27303;SDS011;14791;52.392;13.092;2022-08-21T15:07:01;1.95;;;1.07;;
27303;SDS011;14791;52.392;13.092;2022-08-21T15:09:30;1.55;;;1.12;;
27303;SDS011;14791;52.392;13.092;2022-08-21T15:12:00;1.22;;;1.12;;
27303;SDS011;14791;52.392;13.092;2022-08-21T15:14:31;1.45;;;1.35;;
27303;SDS011;14791;52.392;13.092;2022-08-21T15:17:02;1.37;;;1.27;;
27303;SDS011;14791;52.392;13.092;2022-08-21T15:19:31;1.52;;;1.42;;
27303;SDS011;14791;52.392;13.092;2022-08-21T15:22:00;0.95;;;0.95;;
27303;SDS011;14791;52.392;13.092;2022-08-21T15:24:29;1.20;;;1.20;;
27303;SDS011;14791;52.392;13.092;2022-08-21T15:26:59;1.82;;;1.72;;
27303;SDS011;14791;52.392;13.092;2022-08-21T15:29:30;1.27;;;1.25;;
27303;SDS011;14791;52.392;13.092;2022-08-21T15:32:01;1.30;;;1.20;;
27303;SDS011;14791;52.392;13.092;2022-08-21T15:34:32;1.70;;;1.60;;
27303;SDS011;14791;52.392;13.092;2022-08-21T15:37:00;1.02;;;1.02;;
27303;SDS011;14791;52.392;13.092;2022-08-21T15:39:31;1.50;;;1.40;;
27303;SDS011;14791;52.392;13.092;2022-08-21T15:42:00;1.35;;;1.32;;
27303;SDS011;14791;52.392;13.092;2022-08-21T15:44:29;1.10;;;1.10;;
27303;SDS011;14791;52.392;13.092;2022-08-21T15:46:58;1.62;;;1.52;;
27303;SDS011;14791;52.392;13.092;2022-08-21T15:49:28;1.12;;;1.12;;
27303;SDS011;14791;52.392;13.092;2022-08-21T15:51:56;1.35;;;1.30;;
27303;SDS011;14791;52.392;13.092;2022-08-21T15:54:25;1.55;;;1.45;;
27303;SDS011;14791;52.392;13.092;2022-08-21T15:56:54;1.30;;;1.20;;
27303;SDS011;14791;52.392;13.092;2022-08-21T15:59:23;1.27;;;1.17;;
27303;SDS011;14791;52.392;13.092;2022-08-21T16:01:53;1.32;;;1.32;;
27303;SDS011;14791;52.392;13.092;2022-08-21T16:04:24;1.92;;;1.77;;